This is the latest recevied weather packets stored in our database for station/object W5HKR. If no packets are shown the sender has not sent any weather packets the latest 10 day(s).
| Time | Temp. | Humidity | Pressure | Rain* | Wind** | Luminosity | Snow |
|---|---|---|---|---|---|---|---|
| 1778127203 | 18.33° C | 81% | 985.3 hPa | 0 mm | - | - | - |
| 1778126633 | 18.33° C | 91% | 990.6 hPa | 0 mm | - | - | - |
| 1778126603 | 18.33° C | 91% | 990.6 hPa | 0 mm | - | - | - |
| 1778126303 | 18.33° C | 91% | 990.6 hPa | 0 mm | - | - | - |
| 1778126003 | 18.33° C | 81% | 985 hPa | 0 mm | - | - | - |
| 1778125704 | 18.33° C | 91% | 990.6 hPa | 0 mm | - | - | - |
| 1778125554 | 18.33° C | 91% | 990.6 hPa | 0 mm | - | - | - |
| 1778125404 | 18.33° C | 91% | 990.6 hPa | 0 mm | - | - | - |
| 1778125103 | 18.33° C | 81% | 985.5 hPa | 0 mm | - | - | - |
| 1778124804 | 18.33° C | 80% | 985.3 hPa | 0 mm | - | - | - |
| 1778124474 | 18.33° C | 91% | 990.6 hPa | 0 mm | - | - | - |
| 1778124203 | 18.33° C | 91% | 990.6 hPa | 0 mm | - | - | - |
| 1778123904 | 18.33° C | 91% | 990.6 hPa | 0 mm | - | - | - |
| 1778123394 | 18.33° C | 91% | 990.6 hPa | 0 mm | - | - | - |
| 1778123304 | 18.33° C | 80% | 984.8 hPa | 0 mm | - | - | - |
| 1778123004 | 18.33° C | 80% | 985.1 hPa | 0 mm | - | - | - |
| 1778122703 | 18.33° C | 91% | 990.6 hPa | 0 mm | - | - | - |
| 1778122404 | 18.33° C | 80% | 985.1 hPa | 0 mm | - | - | - |
| 1778122313 | 18.33° C | 91% | 990.6 hPa | 0 mm | - | - | - |
| 1778122104 | 18.33° C | 91% | 990.6 hPa | 0 mm | - | - | - |
| 1778121504 | 18.33° C | 80% | 984.8 hPa | 0 mm | - | - | - |
| 1778121234 | 18.33° C | 80% | 984.9 hPa | 0 mm | - | - | - |
| 1778121205 | 18.33° C | 80% | 984.6 hPa | 0 mm | - | - | - |
| 1778120902 | 18.33° C | 91% | 990.6 hPa | 0 mm | - | - | - |
| 1778120604 | 18.33° C | 80% | 984.1 hPa | 0 mm | - | - | - |
* Rain latest hour (hover to see other rain measurements)
** Current wind speed in m/s (hover to see current wind gust speed)